createdAt,value
2023-04-09T00:00:18.898Z,99.90
2023-04-09T00:01:22.007Z,99.90
2023-04-09T00:02:25.169Z,99.90
2023-04-09T00:03:28.266Z,99.90
2023-04-09T00:04:30.445Z,99.90
2023-04-09T00:05:33.635Z,99.90
2023-04-09T00:06:35.807Z,99.90
2023-04-09T00:07:39.196Z,99.90
2023-04-09T00:08:41.230Z,99.90
2023-04-09T00:09:44.273Z,99.90
2023-04-09T00:10:47.101Z,99.90
2023-04-09T00:11:50.411Z,99.90
2023-04-09T00:12:53.879Z,99.90
2023-04-09T00:13:58.321Z,99.90
2023-04-09T00:15:00.354Z,99.90
2023-04-09T00:16:03.451Z,99.90
2023-04-09T00:17:05.588Z,99.90
2023-04-09T00:18:08.584Z,99.90
2023-04-09T00:19:11.634Z,99.90
2023-04-09T00:20:14.622Z,99.90
2023-04-09T00:21:16.805Z,99.90
2023-04-09T00:22:19.801Z,99.90
2023-04-09T00:23:22.085Z,99.90
2023-04-09T00:24:25.136Z,99.90
2023-04-09T00:25:28.691Z,99.90
2023-04-09T00:26:32.393Z,99.90
2023-04-09T00:27:34.432Z,99.90
2023-04-09T00:28:39.037Z,99.90
2023-04-09T00:29:41.656Z,99.90
2023-04-09T00:30:44.714Z,99.90
2023-04-09T00:31:46.913Z,99.90
2023-04-09T00:32:50.723Z,99.90
2023-04-09T00:33:52.793Z,99.90
2023-04-09T00:34:55.891Z,99.90
2023-04-09T00:35:58.945Z,99.90
2023-04-09T00:37:01.286Z,99.90
2023-04-09T00:38:04.415Z,99.90
2023-04-09T00:39:06.594Z,99.90
2023-04-09T00:40:10.403Z,99.90
2023-04-09T00:41:12.459Z,99.90
2023-04-09T00:42:16.505Z,99.90
2023-04-09T00:43:18.668Z,99.90
2023-04-09T00:44:23.384Z,99.90
2023-04-09T00:45:25.546Z,99.90
2023-04-09T00:46:28.771Z,99.90
2023-04-09T00:47:31.226Z,99.90
2023-04-09T00:48:34.600Z,99.90
2023-04-09T00:49:37.442Z,99.90
2023-04-09T00:50:40.643Z,99.90
2023-04-09T00:51:44.041Z,99.90
2023-04-09T00:52:47.108Z,99.90
2023-04-09T00:53:49.575Z,99.90
2023-04-09T00:54:54.005Z,99.90
2023-04-09T00:55:56.739Z,99.90
2023-04-09T00:57:00.796Z,99.90
2023-04-09T00:58:03.366Z,99.90
2023-04-09T00:59:06.404Z,99.90
2023-04-09T01:00:13.034Z,99.90
2023-04-09T01:01:16.504Z,99.90
2023-04-09T01:02:18.776Z,99.90
2023-04-09T01:03:22.363Z,99.90
2023-04-09T01:04:24.981Z,99.90
2023-04-09T01:05:33.304Z,99.90
2023-04-09T01:06:42.793Z,99.90
2023-04-09T01:08:01.031Z,99.90
2023-04-09T01:09:10.709Z,99.90
2023-04-09T01:10:20.275Z,99.90
2023-04-09T01:11:32.188Z,99.90
2023-04-09T01:12:42.140Z,99.90
2023-04-09T01:13:53.599Z,99.90
2023-04-09T01:15:03.233Z,99.90
2023-04-09T01:16:13.419Z,99.90
2023-04-09T01:17:19.107Z,99.90
2023-04-09T01:18:27.543Z,99.90
2023-04-09T01:19:43.387Z,99.90
2023-04-09T01:20:53.955Z,99.90
2023-04-09T01:21:58.718Z,99.90
2023-04-09T01:23:10.968Z,99.90
2023-04-09T01:24:27.243Z,99.90
2023-04-09T01:25:43.460Z,99.90
2023-04-09T01:26:59.505Z,99.90
2023-04-09T01:28:16.541Z,99.90
2023-04-09T01:29:22.307Z,99.90
2023-04-09T01:30:28.044Z,99.90
2023-04-09T01:31:33.770Z,99.90
2023-04-09T01:32:38.976Z,99.90
2023-04-09T01:33:42.534Z,99.90
2023-04-09T01:34:46.072Z,99.90
2023-04-09T01:35:50.470Z,99.90
2023-04-09T01:36:55.352Z,99.90
2023-04-09T01:37:59.388Z,99.90
2023-04-09T01:39:02.578Z,99.90
2023-04-09T01:40:06.919Z,99.90
2023-04-09T01:41:13.063Z,99.90
2023-04-09T01:42:17.520Z,99.90
2023-04-09T01:43:21.748Z,99.90
2023-04-09T01:44:26.462Z,99.90
2023-04-09T01:45:28.667Z,99.90
2023-04-09T01:46:33.057Z,99.90
2023-04-09T01:47:35.849Z,99.90
2023-04-09T01:48:40.425Z,99.90
2023-04-09T01:49:44.145Z,99.90
2023-04-09T01:50:48.510Z,99.90
2023-04-09T01:51:50.957Z,99.90
2023-04-09T01:52:54.147Z,99.90
2023-04-09T01:53:56.598Z,99.90
2023-04-09T01:54:59.945Z,99.90
2023-04-09T01:56:02.189Z,99.90
2023-04-09T01:57:05.826Z,99.90
2023-04-09T01:58:08.198Z,99.90
2023-04-09T01:59:13.076Z,99.90
2023-04-09T02:00:16.312Z,99.90
2023-04-09T02:01:25.439Z,99.90
2023-04-09T02:02:37.326Z,99.90
2023-04-09T02:03:45.725Z,99.90
2023-04-09T02:04:51.886Z,99.90
2023-04-09T02:06:01.841Z,99.90
2023-04-09T02:07:10.142Z,99.90
2023-04-09T02:08:15.779Z,99.90
2023-04-09T02:09:20.287Z,99.90
2023-04-09T02:10:25.358Z,99.90
2023-04-09T02:11:29.619Z,99.90
2023-04-09T02:12:37.305Z,99.90
2023-04-09T02:13:41.212Z,99.90
2023-04-09T02:14:49.308Z,99.90
2023-04-09T02:15:51.929Z,99.90
2023-04-09T02:16:55.133Z,99.90
2023-04-09T02:17:57.279Z,99.90
2023-04-09T02:19:01.314Z,99.90
2023-04-09T02:20:03.899Z,99.90
2023-04-09T02:21:07.022Z,99.90
2023-04-09T02:22:09.495Z,99.90
2023-04-09T02:23:12.639Z,99.90
2023-04-09T02:24:14.617Z,99.90
2023-04-09T02:25:17.760Z,99.90
2023-04-09T02:26:20.117Z,99.90
2023-04-09T02:27:23.161Z,99.90
2023-04-09T02:28:25.277Z,99.90
2023-04-09T02:29:28.329Z,99.90
2023-04-09T02:30:31.760Z,99.90
2023-04-09T02:31:34.797Z,99.90
2023-04-09T02:32:37.127Z,99.90
2023-04-09T02:33:40.451Z,99.90
2023-04-09T02:34:42.592Z,99.90
2023-04-09T02:35:45.901Z,99.90
2023-04-09T02:36:48.568Z,99.90
2023-04-09T02:37:52.113Z,99.90
2023-04-09T02:38:54.432Z,99.90
2023-04-09T02:39:57.649Z,99.90
2023-04-09T02:40:59.778Z,99.90
2023-04-09T02:42:02.850Z,99.90
2023-04-09T02:43:04.916Z,99.90
2023-04-09T02:44:08.167Z,99.90
2023-04-09T02:45:11.085Z,99.90
2023-04-09T02:46:15.665Z,99.90
2023-04-09T02:47:18.689Z,99.90
2023-04-09T02:48:20.835Z,99.90
2023-04-09T02:49:23.938Z,99.90
2023-04-09T02:50:27.842Z,99.90
2023-04-09T02:51:32.438Z,99.90
2023-04-09T02:52:34.578Z,99.90
2023-04-09T02:53:40.679Z,99.90
2023-04-09T02:54:42.900Z,99.90
2023-04-09T02:55:46.394Z,99.90
2023-04-09T02:56:48.646Z,99.90
2023-04-09T02:57:51.849Z,99.90
2023-04-09T02:58:54.322Z,99.90
2023-04-09T02:59:57.765Z,99.90
2023-04-09T03:00:59.935Z,99.90
2023-04-09T03:02:04.456Z,99.90
2023-04-09T03:03:06.665Z,99.90
2023-04-09T03:04:09.974Z,99.90
2023-04-09T03:05:12.208Z,99.90
2023-04-09T03:06:15.412Z,99.90
2023-04-09T03:07:17.640Z,99.90
2023-04-09T03:08:20.822Z,99.90
2023-04-09T03:09:23.743Z,99.90
2023-04-09T03:10:26.835Z,99.90
2023-04-09T03:11:29.058Z,99.90
2023-04-09T03:12:32.372Z,99.90
2023-04-09T03:13:34.390Z,99.90
2023-04-09T03:14:37.438Z,99.90
2023-04-09T03:15:39.563Z,99.90
2023-04-09T03:16:42.849Z,99.90
2023-04-09T03:17:46.282Z,99.90
2023-04-09T03:18:49.604Z,99.90
2023-04-09T03:19:52.457Z,99.90
2023-04-09T03:20:56.008Z,99.90
2023-04-09T03:21:58.862Z,99.90
2023-04-09T03:23:04.239Z,99.90
2023-04-09T03:24:12.089Z,99.90
2023-04-09T03:25:16.938Z,99.90
2023-04-09T03:26:19.946Z,99.90
2023-04-09T03:27:25.016Z,99.90
2023-04-09T03:28:31.175Z,99.90
2023-04-09T03:29:34.321Z,99.90
2023-04-09T03:30:36.667Z,99.90
2023-04-09T03:31:42.251Z,99.90
2023-04-09T03:32:45.790Z,99.90
2023-04-09T03:33:49.832Z,99.90
2023-04-09T03:34:51.939Z,99.90
2023-04-09T03:35:57.647Z,99.90
2023-04-09T03:37:11.238Z,99.90
2023-04-09T03:38:13.582Z,99.90
2023-04-09T03:39:16.913Z,99.90
2023-04-09T03:40:19.697Z,99.90
2023-04-09T03:41:22.793Z,99.90
2023-04-09T03:42:25.283Z,99.90
2023-04-09T03:43:28.646Z,99.90
2023-04-09T03:44:30.781Z,99.90
2023-04-09T03:45:39.153Z,99.90
2023-04-09T03:46:56.815Z,99.90
2023-04-09T03:48:02.331Z,99.90
2023-04-09T03:49:04.543Z,99.90
2023-04-09T03:50:13.641Z,99.90
2023-04-09T03:51:28.934Z,99.90
2023-04-09T03:52:33.922Z,99.90
2023-04-09T03:53:41.886Z,99.90
2023-04-09T03:54:44.100Z,99.90
2023-04-09T03:55:54.498Z,99.90
2023-04-09T03:57:01.435Z,99.90
2023-04-09T03:58:04.454Z,99.90
2023-04-09T03:59:09.762Z,99.90
2023-04-09T04:00:19.041Z,99.90
2023-04-09T04:01:44.130Z,99.90
2023-04-09T04:02:47.509Z,99.90
2023-04-09T04:03:51.250Z,99.90
2023-04-09T04:04:59.796Z,99.90
2023-04-09T04:06:06.590Z,99.90
2023-04-09T04:07:26.447Z,99.90
2023-04-09T04:08:33.857Z,99.90
2023-04-09T04:09:37.444Z,99.90
2023-04-09T04:10:43.951Z,99.90
2023-04-09T04:11:48.262Z,99.90
2023-04-09T04:12:51.159Z,99.90
2023-04-09T04:14:02.024Z,99.90
2023-04-09T04:15:05.301Z,99.90
2023-04-09T04:16:13.727Z,99.90
2023-04-09T04:17:16.605Z,99.90
2023-04-09T04:18:19.935Z,99.90
2023-04-09T04:19:27.203Z,99.90
2023-04-09T04:20:34.220Z,99.90
2023-04-09T04:21:41.597Z,99.90
2023-04-09T04:22:44.809Z,99.90
2023-04-09T04:23:46.957Z,99.90
2023-04-09T04:24:56.263Z,99.90
2023-04-09T04:25:59.191Z,99.90
2023-04-09T04:27:07.411Z,99.90
2023-04-09T04:28:11.011Z,99.90
2023-04-09T04:29:17.524Z,99.90
2023-04-09T04:30:27.625Z,99.90
2023-04-09T04:31:38.162Z,99.90
2023-04-09T04:32:40.752Z,99.90
2023-04-09T04:33:46.717Z,99.90
2023-04-09T04:34:51.923Z,99.90
2023-04-09T04:36:06.473Z,99.90
2023-04-09T04:37:13.849Z,99.90
2023-04-09T04:38:17.282Z,99.90
2023-04-09T04:39:19.598Z,99.90
2023-04-09T04:40:30.904Z,99.90
2023-04-09T04:41:36.569Z,99.90
2023-04-09T04:42:50.595Z,99.90
2023-04-09T04:43:52.663Z,99.90
2023-04-09T04:44:58.984Z,99.90
2023-04-09T04:46:22.727Z,99.90
2023-04-09T04:47:25.033Z,99.90
2023-04-09T04:48:29.727Z,99.90
2023-04-09T04:49:31.776Z,99.90
2023-04-09T04:50:36.713Z,99.90
2023-04-09T04:51:42.416Z,99.90
2023-04-09T04:52:48.576Z,99.90
2023-04-09T04:53:51.796Z,99.90
2023-04-09T04:54:53.941Z,99.90
2023-04-09T04:55:59.553Z,99.90
2023-04-09T04:57:04.326Z,99.90
2023-04-09T04:58:16.476Z,99.90
2023-04-09T04:59:24.308Z,99.90
2023-04-09T05:00:36.629Z,99.90
2023-04-09T05:01:39.982Z,99.90
2023-04-09T05:02:46.904Z,99.90
2023-04-09T05:03:56.887Z,99.90
2023-04-09T05:05:08.542Z,99.90
2023-04-09T05:06:18.496Z,99.90
2023-04-09T05:07:21.335Z,99.90
2023-04-09T05:08:27.719Z,99.90
2023-04-09T05:09:31.357Z,99.90
2023-04-09T05:10:42.743Z,99.90
2023-04-09T05:11:45.089Z,99.90
2023-04-09T05:12:52.783Z,99.90
2023-04-09T05:14:03.651Z,99.90
2023-04-09T05:15:06.981Z,99.90
2023-04-09T05:16:16.547Z,99.90
2023-04-09T05:17:19.692Z,99.90
2023-04-09T05:18:22.866Z,99.90
2023-04-09T05:19:25.028Z,99.90
2023-04-09T05:20:34.312Z,99.90
2023-04-09T05:21:46.190Z,99.90
2023-04-09T05:22:52.247Z,99.90
2023-04-09T05:24:00.487Z,99.90
2023-04-09T05:25:07.271Z,99.90
2023-04-09T05:26:13.802Z,99.90
2023-04-09T05:27:26.011Z,99.90
2023-04-09T05:28:34.134Z,99.90
2023-04-09T05:29:43.928Z,99.90
2023-04-09T05:30:47.001Z,99.90
2023-04-09T05:31:51.022Z,99.90
2023-04-09T05:33:02.806Z,99.90
2023-04-09T05:34:06.213Z,99.90
2023-04-09T05:35:19.035Z,99.90
2023-04-09T05:36:22.253Z,99.90
2023-04-09T05:37:26.039Z,99.90
2023-04-09T05:38:29.765Z,99.90
2023-04-09T05:39:34.920Z,99.90
2023-04-09T05:40:37.374Z,99.90
2023-04-09T05:41:46.590Z,99.90
2023-04-09T05:43:01.670Z,99.90
2023-04-09T05:44:13.315Z,99.90
2023-04-09T05:45:16.564Z,99.90
2023-04-09T05:46:24.441Z,99.90
2023-04-09T05:47:27.670Z,99.90
2023-04-09T05:48:37.885Z,99.90
2023-04-09T05:49:40.941Z,99.90
2023-04-09T05:50:54.561Z,99.90
2023-04-09T05:52:01.307Z,99.90
2023-04-09T05:53:09.121Z,99.90
2023-04-09T05:54:16.520Z,97.50
2023-04-09T05:55:20.101Z,95.20
2023-04-09T05:56:28.048Z,92.40
2023-04-09T05:57:33.506Z,89.60
2023-04-09T05:58:39.533Z,83.80
2023-04-09T05:59:42.811Z,78.70
2023-04-09T06:00:44.875Z,75.90
2023-04-09T06:01:48.149Z,69.40
2023-04-09T06:02:50.836Z,68.00
2023-04-09T06:03:57.022Z,65.80
2023-04-09T06:05:00.458Z,66.30
2023-04-09T06:06:03.538Z,64.90
2023-04-09T06:07:05.626Z,62.20
2023-04-09T06:08:09.955Z,59.30
2023-04-09T06:09:13.780Z,57.90
2023-04-09T06:10:15.914Z,56.10
2023-04-09T06:11:18.970Z,55.70
2023-04-09T06:12:21.541Z,55.60
2023-04-09T06:13:24.585Z,54.10
2023-04-09T06:14:26.949Z,53.10
2023-04-09T06:15:29.972Z,52.90
2023-04-09T06:16:33.606Z,52.50
2023-04-09T06:17:36.703Z,52.10
2023-04-09T06:18:38.975Z,52.20
2023-04-09T06:19:41.973Z,51.70
2023-04-09T06:20:44.026Z,51.40
2023-04-09T06:21:47.069Z,51.20
2023-04-09T06:22:50.081Z,49.20
2023-04-09T06:23:53.967Z,48.70
2023-04-09T06:24:57.284Z,47.70
2023-04-09T06:25:59.759Z,47.40
2023-04-09T06:27:02.885Z,46.20
2023-04-09T06:28:05.366Z,46.50
2023-04-09T06:29:08.416Z,47.00
2023-04-09T06:30:11.597Z,47.30
2023-04-09T06:31:14.617Z,47.30
2023-04-09T06:32:16.993Z,48.40
2023-04-09T06:33:20.135Z,48.20
2023-04-09T06:34:22.387Z,49.50
2023-04-09T06:35:25.587Z,48.90
2023-04-09T06:36:27.831Z,48.80
2023-04-09T06:37:30.904Z,49.20
2023-04-09T06:38:33.955Z,48.90
2023-04-09T06:39:40.369Z,49.10
2023-04-09T06:40:45.944Z,48.90
2023-04-09T06:41:47.934Z,48.60
2023-04-09T06:43:13.925Z,48.70
2023-04-09T06:44:24.335Z,47.20
2023-04-09T06:45:27.553Z,46.40
2023-04-09T06:46:29.673Z,46.30
2023-04-09T06:47:32.847Z,46.90
2023-04-09T06:48:35.984Z,48.10
2023-04-09T06:49:38.041Z,48.80
2023-04-09T06:50:41.085Z,49.00
2023-04-09T06:51:43.252Z,48.30
2023-04-09T06:52:46.307Z,47.90
2023-04-09T06:53:49.910Z,47.80
2023-04-09T06:54:53.458Z,47.20
2023-04-09T06:55:57.202Z,47.00
2023-04-09T06:56:59.334Z,46.70
2023-04-09T06:58:03.348Z,47.10
2023-04-09T06:59:06.533Z,46.90
2023-04-09T07:00:09.928Z,45.90
2023-04-09T07:01:13.745Z,44.00
2023-04-09T07:02:16.873Z,42.70
2023-04-09T07:03:19.305Z,42.50
2023-04-09T07:04:22.591Z,42.30
2023-04-09T07:05:24.805Z,43.10
2023-04-09T07:06:27.831Z,44.50
2023-04-09T07:07:30.651Z,44.80
2023-04-09T07:08:33.719Z,43.90
2023-04-09T07:09:35.916Z,43.40
2023-04-09T07:10:40.353Z,43.00
2023-04-09T07:11:42.693Z,42.50
2023-04-09T07:12:45.921Z,42.40
2023-04-09T07:13:48.479Z,41.40
2023-04-09T07:14:51.669Z,40.70
2023-04-09T07:15:53.827Z,40.00
2023-04-09T07:16:56.836Z,40.60
2023-04-09T07:17:59.960Z,41.10
2023-04-09T07:19:02.232Z,41.10
2023-04-09T07:20:05.939Z,40.50
2023-04-09T07:21:09.072Z,40.60
2023-04-09T07:22:11.083Z,40.20
2023-04-09T07:23:14.140Z,40.40
2023-04-09T07:24:17.124Z,40.10
2023-04-09T07:25:19.470Z,39.50
2023-04-09T07:26:24.245Z,38.70
2023-04-09T07:27:28.523Z,38.20
2023-04-09T07:28:30.724Z,38.20
2023-04-09T07:29:33.915Z,38.90
2023-04-09T07:30:35.971Z,37.80
2023-04-09T07:31:39.455Z,38.00
2023-04-09T07:32:41.884Z,37.20
2023-04-09T07:33:45.165Z,37.20
2023-04-09T07:34:47.546Z,37.00
2023-04-09T07:35:51.445Z,36.20
2023-04-09T07:36:53.911Z,34.80
2023-04-09T07:37:57.284Z,34.20
2023-04-09T07:38:59.290Z,34.50
2023-04-09T07:40:03.947Z,35.00
2023-04-09T07:41:07.118Z,34.30
2023-04-09T07:42:10.826Z,34.40
2023-04-09T07:43:16.819Z,34.50
2023-04-09T07:44:20.267Z,34.90
2023-04-09T07:45:23.323Z,35.70
2023-04-09T07:46:26.391Z,36.30
2023-04-09T07:47:28.666Z,35.30
2023-04-09T07:48:31.844Z,35.30
2023-04-09T07:49:36.261Z,34.70
2023-04-09T07:50:39.464Z,34.20
2023-04-09T07:51:41.566Z,33.30
2023-04-09T07:52:44.628Z,32.90
2023-04-09T07:53:47.712Z,32.40
2023-04-09T07:54:50.748Z,33.70
2023-04-09T07:55:53.713Z,34.20
2023-04-09T07:56:56.661Z,34.40
2023-04-09T07:58:01.147Z,34.10
2023-04-09T07:59:03.265Z,34.80
2023-04-09T08:00:07.572Z,34.40
2023-04-09T08:01:16.762Z,34.10
2023-04-09T08:02:18.940Z,34.90
2023-04-09T08:03:23.333Z,33.60
2023-04-09T08:04:25.973Z,33.30
2023-04-09T08:05:29.178Z,33.70
2023-04-09T08:06:31.457Z,34.10
2023-04-09T08:07:34.507Z,34.40
2023-04-09T08:08:36.509Z,34.60
2023-04-09T08:09:39.503Z,35.20
2023-04-09T08:10:42.553Z,35.30
2023-04-09T08:11:45.722Z,34.80
2023-04-09T08:12:49.257Z,34.70
2023-04-09T08:13:53.034Z,34.20
2023-04-09T08:14:56.073Z,34.70
2023-04-09T08:16:00.707Z,34.10
2023-04-09T08:17:04.025Z,33.60
2023-04-09T08:18:07.413Z,33.00
2023-04-09T08:19:09.920Z,32.70
2023-04-09T08:20:13.727Z,32.30
2023-04-09T08:21:16.340Z,31.80
2023-04-09T08:22:19.613Z,31.50
2023-04-09T08:23:22.699Z,31.90
2023-04-09T08:24:24.890Z,32.10
2023-04-09T08:25:28.012Z,31.70
2023-04-09T08:26:30.355Z,31.80
2023-04-09T08:27:34.720Z,31.80
2023-04-09T08:28:37.791Z,32.00
2023-04-09T08:29:42.587Z,32.50
2023-04-09T08:30:44.689Z,32.80
2023-04-09T08:31:47.815Z,32.20
2023-04-09T08:32:50.100Z,32.80
2023-04-09T08:33:53.568Z,33.10
2023-04-09T08:34:56.669Z,33.30
2023-04-09T08:35:58.751Z,33.40
2023-04-09T08:37:02.461Z,33.30
2023-04-09T08:38:05.884Z,32.80
2023-04-09T08:39:08.896Z,32.40
2023-04-09T08:40:11.998Z,32.30
2023-04-09T08:41:19.336Z,31.90
2023-04-09T08:42:24.044Z,32.00
2023-04-09T08:43:37.413Z,31.80
2023-04-09T08:44:54.267Z,31.90
2023-04-09T08:45:58.035Z,32.20
2023-04-09T08:47:01.698Z,32.10
2023-04-09T08:48:04.956Z,32.40
2023-04-09T08:49:10.785Z,32.80
2023-04-09T08:50:13.661Z,32.50
2023-04-09T08:51:17.196Z,32.90
2023-04-09T08:52:21.974Z,32.80
2023-04-09T08:53:24.585Z,32.90
2023-04-09T08:54:28.054Z,33.60
2023-04-09T08:55:31.261Z,33.60
2023-04-09T08:56:34.415Z,33.40
2023-04-09T08:57:38.365Z,33.90
2023-04-09T08:58:44.794Z,34.00
2023-04-09T08:59:48.014Z,34.20
2023-04-09T09:00:51.492Z,33.90
2023-04-09T09:02:08.745Z,33.90
2023-04-09T09:03:13.199Z,33.80
2023-04-09T09:04:15.545Z,33.90
2023-04-09T09:05:19.036Z,33.70
2023-04-09T09:06:22.408Z,33.70
2023-04-09T09:07:25.464Z,33.40
2023-04-09T09:08:27.719Z,33.30
2023-04-09T09:09:30.994Z,33.10
2023-04-09T09:10:42.285Z,33.80
2023-04-09T09:11:46.389Z,33.80
2023-04-09T09:12:49.422Z,33.50
2023-04-09T09:13:58.375Z,33.50
2023-04-09T09:15:01.797Z,33.40
2023-04-09T09:16:16.055Z,34.50
2023-04-09T09:17:19.326Z,32.50
2023-04-09T09:18:23.173Z,32.30
2023-04-09T09:19:31.359Z,32.30
2023-04-09T09:20:33.614Z,31.80
2023-04-09T09:21:38.585Z,31.90
2023-04-09T09:22:55.231Z,31.80
2023-04-09T09:23:59.121Z,32.40
2023-04-09T09:25:01.395Z,32.60
2023-04-09T09:26:13.150Z,32.80
2023-04-09T09:27:33.209Z,32.60
2023-04-09T09:28:36.123Z,32.90
2023-04-09T09:29:42.924Z,32.90
2023-04-09T09:30:49.178Z,33.10
2023-04-09T09:31:54.520Z,32.80
2023-04-09T09:33:07.985Z,33.10
2023-04-09T09:34:11.367Z,32.20
2023-04-09T09:35:13.393Z,32.20
2023-04-09T09:36:16.950Z,32.30
2023-04-09T09:37:26.918Z,32.00
2023-04-09T09:38:30.314Z,31.70
2023-04-09T09:39:44.345Z,31.70
2023-04-09T09:40:48.398Z,31.90
2023-04-09T09:42:08.755Z,31.70
2023-04-09T09:43:13.539Z,31.80
2023-04-09T09:44:32.574Z,32.20
2023-04-09T09:45:36.160Z,32.30
2023-04-09T09:46:41.363Z,32.30
2023-04-09T09:47:45.840Z,32.70
2023-04-09T09:48:49.714Z,33.10
2023-04-09T09:49:52.536Z,33.30
2023-04-09T09:50:56.119Z,33.10
2023-04-09T09:52:02.750Z,32.80
2023-04-09T09:53:06.247Z,32.60
2023-04-09T09:54:10.724Z,31.30
2023-04-09T09:55:14.447Z,31.40
2023-04-09T09:56:22.627Z,30.00
2023-04-09T09:57:27.086Z,31.00
2023-04-09T09:58:37.775Z,30.00
2023-04-09T09:59:44.572Z,31.30
2023-04-09T10:00:48.384Z,31.80
2023-04-09T10:01:57.897Z,31.50
2023-04-09T10:03:08.493Z,31.60
2023-04-09T10:04:16.372Z,31.50
2023-04-09T10:05:22.651Z,31.80
2023-04-09T10:06:26.399Z,31.20
2023-04-09T10:07:30.156Z,30.70
2023-04-09T10:08:35.967Z,30.30
2023-04-09T10:09:41.608Z,30.50
2023-04-09T10:10:44.826Z,30.60
2023-04-09T10:11:49.604Z,30.40
2023-04-09T10:12:53.575Z,29.90
2023-04-09T10:13:58.946Z,30.10
2023-04-09T10:15:04.940Z,30.50
2023-04-09T10:16:09.774Z,30.70
2023-04-09T10:17:13.285Z,30.50
2023-04-09T10:18:18.926Z,30.60
2023-04-09T10:19:22.481Z,30.10
2023-04-09T10:20:28.865Z,30.00
2023-04-09T10:21:39.534Z,29.90
2023-04-09T10:22:45.576Z,29.90
2023-04-09T10:23:51.036Z,30.90
2023-04-09T10:24:55.732Z,31.70
2023-04-09T10:25:58.560Z,32.00
2023-04-09T10:27:12.066Z,32.90
2023-04-09T10:28:17.096Z,32.20
2023-04-09T10:29:29.148Z,31.80
2023-04-09T10:30:34.971Z,31.60
2023-04-09T10:31:54.327Z,31.60
2023-04-09T10:32:57.218Z,31.40
2023-04-09T10:34:05.277Z,31.30
2023-04-09T10:35:10.666Z,31.60
2023-04-09T10:36:13.483Z,31.60
2023-04-09T10:37:17.938Z,32.10
2023-04-09T10:38:34.659Z,32.50
2023-04-09T10:39:42.453Z,32.90
2023-04-09T10:40:49.518Z,32.90
2023-04-09T10:41:54.010Z,33.00
2023-04-09T10:42:57.978Z,32.10
2023-04-09T10:44:01.511Z,31.90
2023-04-09T10:45:08.542Z,32.00
2023-04-09T10:46:27.261Z,31.60
2023-04-09T10:47:32.941Z,32.10
2023-04-09T10:48:36.452Z,31.80
2023-04-09T10:49:42.182Z,32.20
2023-04-09T10:50:45.580Z,32.50
2023-04-09T10:51:56.105Z,32.40
2023-04-09T10:53:00.339Z,32.10
2023-04-09T10:54:03.552Z,31.70
2023-04-09T10:55:08.611Z,31.80
2023-04-09T10:56:17.020Z,31.50
2023-04-09T10:57:21.076Z,31.80
2023-04-09T10:58:24.213Z,32.20
2023-04-09T10:59:26.506Z,32.20
2023-04-09T11:00:29.640Z,32.40
2023-04-09T11:01:32.894Z,31.70
2023-04-09T11:03:07.996Z,31.30
2023-04-09T11:04:21.580Z,31.30
2023-04-09T11:05:32.744Z,31.30
2023-04-09T11:06:37.586Z,31.00
2023-04-09T11:07:43.898Z,31.00
2023-04-09T11:08:48.244Z,30.60
2023-04-09T11:09:50.427Z,30.40
2023-04-09T11:10:58.268Z,30.60
2023-04-09T11:12:01.815Z,30.60
2023-04-09T11:13:05.769Z,30.70
2023-04-09T11:14:08.869Z,31.10
2023-04-09T11:15:16.680Z,31.10
2023-04-09T11:16:22.545Z,31.50
2023-04-09T11:17:26.541Z,30.60
2023-04-09T11:18:31.293Z,30.40
2023-04-09T11:19:33.974Z,30.70
2023-04-09T11:20:39.386Z,30.50
2023-04-09T11:21:46.093Z,30.50
2023-04-09T11:22:50.043Z,30.10
2023-04-09T11:23:53.651Z,30.30
2023-04-09T11:24:55.732Z,29.70
2023-04-09T11:25:58.860Z,29.60
2023-04-09T11:27:02.069Z,29.70
2023-04-09T11:28:06.707Z,29.60
2023-04-09T11:29:09.240Z,29.90
2023-04-09T11:30:12.818Z,30.00
2023-04-09T11:31:14.885Z,29.50
2023-04-09T11:32:17.975Z,29.50
2023-04-09T11:33:21.341Z,29.40
2023-04-09T11:34:27.804Z,29.40
2023-04-09T11:35:31.058Z,29.10
2023-04-09T11:36:36.178Z,29.40
2023-04-09T11:37:39.581Z,28.80
2023-04-09T11:38:42.808Z,28.80
2023-04-09T11:39:45.468Z,29.30
2023-04-09T11:40:49.253Z,29.00
2023-04-09T11:41:51.912Z,28.90
2023-04-09T11:42:56.333Z,29.20
2023-04-09T11:43:59.350Z,29.40
2023-04-09T11:45:02.172Z,29.40
2023-04-09T11:46:06.436Z,29.10
2023-04-09T11:47:09.555Z,29.10
2023-04-09T11:48:13.603Z,29.30
2023-04-09T11:49:16.291Z,29.10
2023-04-09T11:50:20.787Z,29.40
2023-04-09T11:51:24.300Z,29.50
2023-04-09T11:52:27.994Z,29.60
2023-04-09T11:53:32.235Z,29.60
2023-04-09T11:54:34.608Z,29.90
2023-04-09T11:55:37.656Z,30.00
2023-04-09T11:56:39.949Z,29.90
2023-04-09T11:57:44.596Z,30.00
2023-04-09T11:58:47.376Z,29.80
2023-04-09T11:59:51.558Z,30.10
2023-04-09T12:00:56.109Z,30.00
2023-04-09T12:01:58.886Z,30.10
2023-04-09T12:03:04.643Z,30.20
2023-04-09T12:04:07.933Z,30.10
2023-04-09T12:05:13.513Z,30.10
2023-04-09T12:06:21.607Z,30.10
2023-04-09T12:07:23.613Z,30.40
2023-04-09T12:08:28.977Z,30.30
2023-04-09T12:09:32.075Z,30.20
2023-04-09T12:10:38.487Z,29.90
2023-04-09T12:11:43.982Z,29.70
2023-04-09T12:12:48.626Z,29.60
2023-04-09T12:14:00.174Z,29.40
2023-04-09T12:15:10.393Z,29.40
2023-04-09T12:16:14.169Z,29.50
2023-04-09T12:17:16.306Z,29.60
2023-04-09T12:18:22.465Z,29.50
2023-04-09T12:19:25.894Z,29.60
2023-04-09T12:20:34.034Z,29.50
2023-04-09T12:21:46.839Z,29.10
2023-04-09T12:22:49.909Z,29.40
2023-04-09T12:23:55.113Z,29.70
2023-04-09T12:24:57.148Z,29.60
2023-04-09T12:26:01.139Z,29.40
2023-04-09T12:27:03.255Z,29.10
2023-04-09T12:28:07.879Z,29.20
2023-04-09T12:29:09.997Z,29.00
2023-04-09T12:30:13.177Z,28.70
2023-04-09T12:31:16.545Z,28.80
2023-04-09T12:32:19.343Z,29.10
2023-04-09T12:33:22.774Z,28.90
2023-04-09T12:34:27.202Z,29.10
2023-04-09T12:35:30.276Z,29.10
2023-04-09T12:36:32.538Z,29.10
2023-04-09T12:37:35.625Z,29.10
2023-04-09T12:38:38.634Z,29.00
2023-04-09T12:39:42.247Z,29.10
2023-04-09T12:40:46.124Z,29.10
2023-04-09T12:41:48.363Z,28.90
2023-04-09T12:42:51.663Z,28.90
2023-04-09T12:43:53.981Z,28.90
2023-04-09T12:44:57.064Z,28.60
2023-04-09T12:45:59.198Z,28.70
2023-04-09T12:47:02.575Z,29.00
2023-04-09T12:48:05.951Z,29.00
2023-04-09T12:49:08.138Z,29.00
2023-04-09T12:50:13.499Z,29.10
2023-04-09T12:51:16.798Z,29.40
2023-04-09T12:52:18.870Z,29.30
2023-04-09T12:53:22.465Z,29.60
2023-04-09T12:54:24.588Z,29.00
2023-04-09T12:55:29.109Z,29.20
2023-04-09T12:56:31.265Z,29.00
2023-04-09T12:57:34.987Z,29.00
2023-04-09T12:58:38.734Z,29.10
2023-04-09T12:59:40.915Z,28.80
2023-04-09T13:00:44.426Z,28.80
2023-04-09T13:01:47.015Z,28.60
2023-04-09T13:02:52.726Z,28.50
2023-04-09T13:03:55.534Z,28.70
2023-04-09T13:04:58.772Z,28.50
2023-04-09T13:06:01.865Z,28.70
2023-04-09T13:07:03.988Z,28.40
2023-04-09T13:08:06.978Z,28.20
2023-04-09T13:09:09.073Z,28.50
2023-04-09T13:10:12.422Z,28.00
2023-04-09T13:11:15.904Z,28.00
2023-04-09T13:12:21.456Z,27.80
2023-04-09T13:13:23.599Z,27.70
2023-04-09T13:14:26.705Z,28.10
2023-04-09T13:15:29.712Z,28.30
2023-04-09T13:16:32.832Z,28.10
2023-04-09T13:17:35.842Z,28.10
2023-04-09T13:18:37.905Z,28.00
2023-04-09T13:19:42.677Z,28.10
2023-04-09T13:20:46.003Z,28.10
2023-04-09T13:21:48.312Z,28.00
2023-04-09T13:22:52.323Z,27.90
2023-04-09T13:23:54.349Z,27.80
2023-04-09T13:24:57.453Z,27.80
2023-04-09T13:26:00.366Z,27.90
2023-04-09T13:27:06.925Z,27.50
2023-04-09T13:28:09.230Z,27.60
2023-04-09T13:29:12.382Z,28.20
2023-04-09T13:30:15.014Z,27.60
2023-04-09T13:31:18.609Z,27.50
2023-04-09T13:32:24.120Z,26.90
2023-04-09T13:33:26.299Z,27.30
2023-04-09T13:34:29.370Z,27.10
2023-04-09T13:35:32.423Z,27.00
2023-04-09T13:36:34.674Z,27.10
2023-04-09T13:37:37.713Z,27.10
2023-04-09T13:38:40.337Z,27.20
2023-04-09T13:39:43.967Z,27.10
2023-04-09T13:40:46.133Z,27.10
2023-04-09T13:41:49.153Z,27.30
2023-04-09T13:42:53.545Z,27.00
2023-04-09T13:43:55.628Z,27.40
2023-04-09T13:44:58.770Z,27.00
2023-04-09T13:46:01.023Z,27.50
2023-04-09T13:47:04.262Z,27.60
2023-04-09T13:48:07.269Z,27.90
2023-04-09T13:49:10.549Z,27.60
2023-04-09T13:50:13.803Z,27.90
2023-04-09T13:51:16.146Z,27.50
2023-04-09T13:52:19.300Z,27.70
2023-04-09T13:53:23.772Z,27.50
2023-04-09T13:54:27.188Z,27.50